createdAt,value
2018-05-11T00:00:52.899Z,1014.79
2018-05-11T00:02:01.813Z,1014.82
2018-05-11T00:03:10.457Z,1014.79
2018-05-11T00:04:19.095Z,1014.82
2018-05-11T00:05:27.744Z,1014.79
2018-05-11T00:06:36.648Z,1014.79
2018-05-11T00:07:45.287Z,1014.82
2018-05-11T00:08:53.930Z,1014.8
2018-05-11T00:10:02.564Z,1014.85
2018-05-11T00:11:11.208Z,1014.87
2018-05-11T00:12:19.850Z,1014.87
2018-05-11T00:13:28.502Z,1014.88
2018-05-11T00:14:37.407Z,1014.85
2018-05-11T00:15:46.049Z,1014.84
2018-05-11T00:16:54.694Z,1014.82
2018-05-11T00:18:03.337Z,1014.88
2018-05-11T00:19:11.975Z,1014.88
2018-05-11T00:20:20.620Z,1014.89
2018-05-11T00:21:29.261Z,1014.91
2018-05-11T00:22:37.913Z,1014.9
2018-05-11T00:23:46.556Z,1014.94
2018-05-11T00:24:55.192Z,1014.94
2018-05-11T00:26:03.832Z,1014.96
2018-05-11T00:27:12.471Z,1014.95
2018-05-11T00:28:21.117Z,1014.96
2018-05-11T00:29:30.024Z,1014.96
2018-05-11T00:30:38.666Z,1014.96
2018-05-11T00:31:47.302Z,1015
2018-05-11T00:32:55.949Z,1014.96
2018-05-11T00:34:04.590Z,1014.97
2018-05-11T00:35:13.230Z,1014.97
2018-05-11T00:36:22.137Z,1014.95
2018-05-11T00:37:30.770Z,1014.96
2018-05-11T00:38:39.418Z,1014.96
2018-05-11T00:39:48.324Z,1014.98
2018-05-11T00:40:56.971Z,1014.97
2018-05-11T00:42:05.609Z,1014.99
2018-05-11T00:43:14.251Z,1014.99
2018-05-11T00:44:22.891Z,1015.03
2018-05-11T00:45:31.539Z,1015.06
2018-05-11T00:46:40.451Z,1015.01
2018-05-11T00:47:49.092Z,1015.03
2018-05-11T00:48:57.733Z,1015.04
2018-05-11T00:50:06.375Z,1015.05
2018-05-11T00:51:15.019Z,1015
2018-05-11T00:52:23.659Z,1015.01
2018-05-11T00:53:32.299Z,1014.99
2018-05-11T00:54:41.199Z,1015.02
2018-05-11T00:55:49.842Z,1015
2018-05-11T00:56:58.482Z,1015
2018-05-11T00:58:07.127Z,1015.02
2018-05-11T00:59:15.763Z,1015.05
2018-05-11T01:00:24.407Z,1015.06
2018-05-11T01:01:33.049Z,1015.06
2018-05-11T01:02:41.690Z,1015.1
2018-05-11T01:03:50.333Z,1015.08
2018-05-11T01:04:58.968Z,1015.14
2018-05-11T01:06:07.607Z,1015.18
2018-05-11T01:07:16.249Z,1015.12
2018-05-11T01:08:25.155Z,1015.16
2018-05-11T01:09:33.795Z,1015.18
2018-05-11T01:10:42.439Z,1015.14
2018-05-11T01:11:51.079Z,1015.15
2018-05-11T01:12:59.726Z,1015.18
2018-05-11T01:14:08.361Z,1015.18
2018-05-11T01:15:17.005Z,1015.19
2018-05-11T01:16:25.644Z,1015.19
2018-05-11T01:17:34.552Z,1015.19
2018-05-11T01:18:43.192Z,1015.21
2018-05-11T01:19:52.095Z,1015.19
2018-05-11T01:21:00.735Z,1015.21
2018-05-11T01:22:09.373Z,1015.2
2018-05-11T01:23:18.021Z,1015.19
2018-05-11T01:24:26.676Z,1015.19
2018-05-11T01:25:35.302Z,1015.22
2018-05-11T01:26:43.940Z,1015.21
2018-05-11T01:27:52.583Z,1015.21
2018-05-11T01:29:01.490Z,1015.19
2018-05-11T01:30:10.134Z,1015.2
2018-05-11T01:31:18.771Z,1015.2
2018-05-11T01:32:27.416Z,1015.21
2018-05-11T01:33:36.055Z,1015.17
2018-05-11T01:34:44.701Z,1015.19
2018-05-11T01:35:53.335Z,1015.2
2018-05-11T01:37:01.981Z,1015.22
2018-05-11T01:38:10.625Z,1015.19
2018-05-11T01:39:19.277Z,1015.2
2018-05-11T01:40:28.177Z,1015.17
2018-05-11T01:41:36.810Z,1015.15
2018-05-11T01:42:45.456Z,1015.14
2018-05-11T01:43:54.093Z,1015.15
2018-05-11T01:45:02.741Z,1015.14
2018-05-11T01:46:11.647Z,1015.14
2018-05-11T01:47:20.554Z,1015.15
2018-05-11T01:48:29.192Z,1015.14
2018-05-11T01:49:38.103Z,1015.16
2018-05-11T01:50:46.738Z,1015.16
2018-05-11T01:51:55.378Z,1015.2
2018-05-11T01:53:04.024Z,1015.14
2018-05-11T01:54:12.668Z,1015.12
2018-05-11T01:55:21.308Z,1015.11
2018-05-11T01:56:29.943Z,1015.11
2018-05-11T01:57:38.582Z,1015.18
2018-05-11T01:58:47.223Z,1015.14
2018-05-11T01:59:55.873Z,1015.18
2018-05-11T02:01:04.511Z,1015.17
2018-05-11T02:02:13.155Z,1015.18
2018-05-11T02:03:21.786Z,1015.19
2018-05-11T02:04:30.435Z,1015.19
2018-05-11T02:05:39.080Z,1015.21
2018-05-11T02:06:47.719Z,1015.22
2018-05-11T02:07:56.353Z,1015.2
2018-05-11T02:09:05.266Z,1015.22
2018-05-11T02:10:13.903Z,1015.22
2018-05-11T02:11:22.545Z,1015.19
2018-05-11T02:12:31.177Z,1015.18
2018-05-11T02:13:39.818Z,1015.19
2018-05-11T02:14:48.464Z,1015.21
2018-05-11T02:15:57.106Z,1015.22
2018-05-11T02:17:05.749Z,1015.26
2018-05-11T02:18:14.380Z,1015.23
2018-05-11T02:19:23.022Z,1015.23
2018-05-11T02:20:31.658Z,1015.23
2018-05-11T02:21:40.311Z,1015.23
2018-05-11T02:22:48.946Z,1015.2
2018-05-11T02:23:57.592Z,1015.23
2018-05-11T02:25:06.495Z,1015.24
2018-05-11T02:26:15.144Z,1015.23
2018-05-11T02:27:23.776Z,1015.26
2018-05-11T02:28:32.423Z,1015.25
2018-05-11T02:29:41.062Z,1015.22
2018-05-11T02:30:49.711Z,1015.25
2018-05-11T02:31:58.353Z,1015.25
2018-05-11T02:33:06.993Z,1015.27
2018-05-11T02:34:16.169Z,1015.26
2018-05-11T02:35:24.816Z,1015.24
2018-05-11T02:36:33.460Z,1015.25
2018-05-11T02:37:42.364Z,1015.27
2018-05-11T02:38:51.004Z,1015.23
2018-05-11T02:39:59.647Z,1015.2
2018-05-11T02:41:08.288Z,1015.18
2018-05-11T02:42:16.933Z,1015.16
2018-05-11T02:43:25.570Z,1015.17
2018-05-11T02:44:34.476Z,1015.18
2018-05-11T02:45:43.380Z,1015.2
2018-05-11T02:46:52.299Z,1015.17
2018-05-11T02:48:00.942Z,1015.2
2018-05-11T02:49:09.588Z,1015.22
2018-05-11T02:50:18.227Z,1015.21
2018-05-11T02:51:27.131Z,1015.18
2018-05-11T02:52:35.769Z,1015.22
2018-05-11T02:53:44.687Z,1015.24
2018-05-11T02:54:53.331Z,1015.27
2018-05-11T02:56:01.977Z,1015.25
2018-05-11T02:57:10.884Z,1015.29
2018-05-11T02:58:19.789Z,1015.24
2018-05-11T02:59:28.442Z,1015.27
2018-05-11T03:00:37.088Z,1015.32
2018-05-11T03:01:45.995Z,1015.32
2018-05-11T03:02:54.911Z,1015.29
2018-05-11T03:04:03.562Z,1015.28
2018-05-11T03:05:12.581Z,1015.28
2018-05-11T03:06:21.858Z,1015.28
2018-05-11T03:07:30.788Z,1015.29
2018-05-11T03:08:39.565Z,1015.28
2018-05-11T03:09:48.449Z,1015.27
2018-05-11T03:10:57.096Z,1015.27
2018-05-11T03:12:06.009Z,1015.27
2018-05-11T03:13:14.650Z,1015.28
2018-05-11T03:14:23.573Z,1015.3
2018-05-11T03:15:32.505Z,1015.31
2018-05-11T03:16:41.157Z,1015.33
2018-05-11T03:17:49.789Z,1015.34
2018-05-11T03:18:58.426Z,1015.33
2018-05-11T03:20:07.066Z,1015.36
2018-05-11T03:21:15.712Z,1015.33
2018-05-11T03:22:24.616Z,1015.34
2018-05-11T03:23:33.254Z,1015.33
2018-05-11T03:24:41.892Z,1015.35
2018-05-11T03:25:50.539Z,1015.36
2018-05-11T03:26:59.179Z,1015.35
2018-05-11T03:28:07.821Z,1015.35
2018-05-11T03:29:16.469Z,1015.34
2018-05-11T03:30:25.376Z,1015.38
2018-05-11T03:31:34.035Z,1015.36
2018-05-11T03:32:42.945Z,1015.35
2018-05-11T03:33:51.590Z,1015.37
2018-05-11T03:35:00.225Z,1015.36
2018-05-11T03:36:08.877Z,1015.39
2018-05-11T03:37:17.513Z,1015.38
2018-05-11T03:38:26.157Z,1015.4
2018-05-11T03:39:35.050Z,1015.42
2018-05-11T03:40:43.701Z,1015.44
2018-05-11T03:41:52.604Z,1015.51
2018-05-11T03:43:01.248Z,1015.56
2018-05-11T03:44:09.890Z,1015.54
2018-05-11T03:45:18.533Z,1015.58
2018-05-11T03:46:27.175Z,1015.6
2018-05-11T03:47:35.818Z,1015.68
2018-05-11T03:48:44.731Z,1015.68
2018-05-11T03:49:53.363Z,1015.67
2018-05-11T03:51:02.011Z,1015.68
2018-05-11T03:52:10.644Z,1015.72
2018-05-11T03:53:19.294Z,1015.72
2018-05-11T03:54:27.925Z,1015.71
2018-05-11T03:55:36.570Z,1015.71
2018-05-11T03:56:45.206Z,1015.74
2018-05-11T03:57:53.855Z,1015.75
2018-05-11T03:59:02.489Z,1015.78
2018-05-11T04:00:11.131Z,1015.75
2018-05-11T04:01:19.769Z,1015.74
2018-05-11T04:02:28.419Z,1015.75
2018-05-11T04:03:37.062Z,1015.75
2018-05-11T04:04:45.700Z,1015.79
2018-05-11T04:05:54.338Z,1015.77
2018-05-11T04:07:02.978Z,1015.78
2018-05-11T04:08:11.901Z,1015.78
2018-05-11T04:09:20.536Z,1015.77
2018-05-11T04:10:29.456Z,1015.76
2018-05-11T04:11:38.089Z,1015.75
2018-05-11T04:12:46.742Z,1015.77
2018-05-11T04:13:55.641Z,1015.81
2018-05-11T04:15:04.287Z,1015.81
2018-05-11T04:16:12.923Z,1015.82
2018-05-11T04:17:21.571Z,1015.84
2018-05-11T04:18:30.211Z,1015.88
2018-05-11T04:19:38.854Z,1015.88
2018-05-11T04:20:47.575Z,1015.9
2018-05-11T04:21:56.397Z,1015.89
2018-05-11T04:23:05.043Z,1015.93
2018-05-11T04:24:13.686Z,1015.91
2018-05-11T04:25:22.330Z,1015.91
2018-05-11T04:26:30.963Z,1015.93
2018-05-11T04:27:39.602Z,1015.93
2018-05-11T04:28:48.238Z,1015.92
2018-05-11T04:29:56.887Z,1015.92
2018-05-11T04:31:05.531Z,1015.92
2018-05-11T04:32:14.435Z,1015.92
2018-05-11T04:33:23.085Z,1015.94
2018-05-11T04:34:31.717Z,1015.97
2018-05-11T04:35:40.635Z,1015.99
2018-05-11T04:36:49.282Z,1016.02
2018-05-11T04:37:58.188Z,1015.99
2018-05-11T04:39:06.821Z,1016.02
2018-05-11T04:40:15.465Z,1016.01
2018-05-11T04:41:24.113Z,1016.02
2018-05-11T04:42:32.758Z,1016.02
2018-05-11T04:43:41.404Z,1016.05
2018-05-11T04:44:50.037Z,1016.08
2018-05-11T04:45:58.682Z,1016.09
2018-05-11T04:47:07.382Z,1016.1
2018-05-11T04:48:15.972Z,1016.14
2018-05-11T04:49:24.605Z,1016.15
2018-05-11T04:50:33.256Z,1016.13
2018-05-11T04:51:41.900Z,1016.12
2018-05-11T04:52:50.551Z,1016.14
2018-05-11T04:53:59.183Z,1016.12
2018-05-11T04:55:07.826Z,1016.15
2018-05-11T04:56:16.464Z,1016.16
2018-05-11T04:57:25.114Z,1016.16
2018-05-11T04:58:33.752Z,1016.19
2018-05-11T04:59:42.392Z,1016.21
2018-05-11T05:00:51.037Z,1016.2
2018-05-11T05:01:59.673Z,1016.2
2018-05-11T05:03:08.326Z,1016.25
2018-05-11T05:04:16.964Z,1016.19
2018-05-11T05:05:25.611Z,1016.21
2018-05-11T05:06:34.244Z,1016.25
2018-05-11T05:07:42.898Z,1016.26
2018-05-11T05:08:51.535Z,1016.25
2018-05-11T05:10:00.180Z,1016.24
2018-05-11T05:11:08.813Z,1016.27
2018-05-11T05:12:17.490Z,1016.28
2018-05-11T05:13:26.108Z,1016.3
2018-05-11T05:14:34.754Z,1016.27
2018-05-11T05:15:43.378Z,1016.28
2018-05-11T05:16:52.022Z,1016.28
2018-05-11T05:18:00.668Z,1016.24
2018-05-11T05:19:09.359Z,1016.28
2018-05-11T05:20:17.967Z,1016.3
2018-05-11T05:21:26.600Z,1016.36
2018-05-11T05:22:35.514Z,1016.36
2018-05-11T05:23:44.150Z,1016.39
2018-05-11T05:24:52.803Z,1016.43
2018-05-11T05:26:01.437Z,1016.43
2018-05-11T05:27:10.082Z,1016.46
2018-05-11T05:28:18.722Z,1016.47
2018-05-11T05:29:27.437Z,1016.47
2018-05-11T05:30:36.010Z,1016.49
2018-05-11T05:31:44.652Z,1016.46
2018-05-11T05:32:53.292Z,1016.46
2018-05-11T05:34:02.502Z,1016.47
2018-05-11T05:35:11.142Z,1016.43
2018-05-11T05:36:19.783Z,1016.45
2018-05-11T05:37:28.425Z,1016.44
2018-05-11T05:38:37.062Z,1016.44
2018-05-11T05:39:45.757Z,1016.45
2018-05-11T05:40:54.354Z,1016.44
2018-05-11T05:42:03.269Z,1016.48
2018-05-11T05:43:11.902Z,1016.5
2018-05-11T05:44:20.817Z,1016.51
2018-05-11T05:45:29.465Z,1016.52
2018-05-11T05:46:38.367Z,1016.53
2018-05-11T05:47:47.003Z,1016.55
2018-05-11T05:48:55.650Z,1016.53
2018-05-11T05:50:04.291Z,1016.55
2018-05-11T05:51:12.939Z,1016.49
2018-05-11T05:52:21.581Z,1016.49
2018-05-11T05:53:30.222Z,1016.46
2018-05-11T05:54:38.868Z,1016.41
2018-05-11T05:55:47.513Z,1016.42
2018-05-11T05:56:56.157Z,1016.4
2018-05-11T05:58:04.794Z,1016.36
2018-05-11T05:59:13.442Z,1016.34
2018-05-11T06:00:22.357Z,1016.34
2018-05-11T06:01:31.004Z,1016.33
2018-05-11T06:02:39.644Z,1016.34
2018-05-11T06:03:48.291Z,1016.4
2018-05-11T06:04:56.933Z,1016.34
2018-05-11T06:06:06.117Z,1016.31
2018-05-11T06:07:14.754Z,1016.33
2018-05-11T06:08:23.399Z,1016.31
2018-05-11T06:09:32.044Z,1016.33
2018-05-11T06:10:40.686Z,1016.31
2018-05-11T06:11:49.327Z,1016.31
2018-05-11T06:12:57.971Z,1016.33
2018-05-11T06:14:06.609Z,1016.36
2018-05-11T06:15:15.250Z,1016.33
2018-05-11T06:16:23.898Z,1016.33
2018-05-11T06:17:32.546Z,1016.27
2018-05-11T06:18:41.190Z,1016.33
2018-05-11T06:19:49.829Z,1016.36
2018-05-11T06:20:58.477Z,1016.29
2018-05-11T06:22:07.325Z,1016.35
2018-05-11T06:23:16.032Z,1016.38
2018-05-11T06:24:24.672Z,1016.35
2018-05-11T06:25:33.318Z,1016.36
2018-05-11T06:26:41.960Z,1016.33
2018-05-11T06:27:50.609Z,1016.35
2018-05-11T06:28:59.244Z,1016.37
2018-05-11T06:30:07.887Z,1016.38
2018-05-11T06:31:16.538Z,1016.36
2018-05-11T06:32:25.181Z,1016.39
2018-05-11T06:33:34.093Z,1016.42
2018-05-11T06:34:42.726Z,1016.43
2018-05-11T06:35:51.380Z,1016.42
2018-05-11T06:37:00.018Z,1016.42
2018-05-11T06:38:08.672Z,1016.43
2018-05-11T06:39:17.304Z,1016.38
2018-05-11T06:40:26.004Z,1016.37
2018-05-11T06:41:34.864Z,1016.38
2018-05-11T06:42:43.515Z,1016.39
2018-05-11T06:43:52.152Z,1016.4
2018-05-11T06:45:01.069Z,1016.42
2018-05-11T06:46:09.975Z,1016.37
2018-05-11T06:47:18.629Z,1016.35
2018-05-11T06:48:27.280Z,1016.34
2018-05-11T06:49:35.917Z,1016.33
2018-05-11T06:50:44.554Z,1016.33
2018-05-11T06:51:53.195Z,1016.26
2018-05-11T06:53:01.849Z,1016.28
2018-05-11T06:54:10.487Z,1016.25
2018-05-11T06:55:19.135Z,1016.27
2018-05-11T06:56:27.771Z,1016.26
2018-05-11T06:57:36.422Z,1016.26
2018-05-11T06:58:45.065Z,1016.27
2018-05-11T06:59:54.245Z,1016.23
2018-05-11T07:01:03.148Z,1016.25
2018-05-11T07:02:11.798Z,1016.22
2018-05-11T07:03:20.711Z,1016.23
2018-05-11T07:04:29.356Z,1016.22
2018-05-11T07:05:37.997Z,1016.21
2018-05-11T07:06:46.639Z,1016.26
2018-05-11T07:07:55.620Z,1016.2
2018-05-11T07:09:04.529Z,1016.24
2018-05-11T07:10:13.176Z,1016.26
2018-05-11T07:11:21.811Z,1016.27
2018-05-11T07:12:30.463Z,1016.29
2018-05-11T07:13:39.099Z,1016.27
2018-05-11T07:14:47.752Z,1016.28
2018-05-11T07:15:56.385Z,1016.29
2018-05-11T07:17:05.036Z,1016.29
2018-05-11T07:18:13.939Z,1016.28
2018-05-11T07:19:22.670Z,1016.3
2018-05-11T07:20:31.626Z,1016.26
2018-05-11T07:21:40.540Z,1016.31
2018-05-11T07:22:49.181Z,1016.28
2018-05-11T07:23:58.099Z,1016.27
2018-05-11T07:25:07.008Z,1016.22
2018-05-11T07:26:15.911Z,1016.23
2018-05-11T07:27:24.554Z,1016.23
2018-05-11T07:28:33.196Z,1016.27
2018-05-11T07:29:42.111Z,1016.2
2018-05-11T07:30:50.755Z,1016.24
2018-05-11T07:31:59.400Z,1016.24
2018-05-11T07:33:08.044Z,1016.28
2018-05-11T07:34:16.691Z,1016.26
2018-05-11T07:35:25.333Z,1016.27
2018-05-11T07:36:33.976Z,1016.26
2018-05-11T07:37:42.615Z,1016.25
2018-05-11T07:38:51.269Z,1016.29
2018-05-11T07:40:00.447Z,1016.31
2018-05-11T07:41:09.091Z,1016.3
2018-05-11T07:42:17.732Z,1016.28
2018-05-11T07:43:26.411Z,1016.28
2018-05-11T07:44:35.025Z,1016.25
2018-05-11T07:45:43.675Z,1016.22
2018-05-11T07:46:52.320Z,1016.22
2018-05-11T07:48:00.962Z,1016.21
2018-05-11T07:49:09.607Z,1016.23
2018-05-11T07:50:18.251Z,1016.24
2018-05-11T07:51:26.963Z,1016.23
2018-05-11T07:52:35.543Z,1016.22
2018-05-11T07:53:44.452Z,1016.21
2018-05-11T07:54:53.096Z,1016.2
2018-05-11T07:56:01.745Z,1016.24
2018-05-11T07:57:10.384Z,1016.28
2018-05-11T07:58:19.296Z,1016.25
2018-05-11T07:59:27.934Z,1016.27
2018-05-11T08:00:36.584Z,1016.26
2018-05-11T08:01:45.229Z,1016.29
2018-05-11T08:02:53.873Z,1016.27
2018-05-11T08:04:02.608Z,1016.3
2018-05-11T08:05:11.157Z,1016.33
2018-05-11T08:06:19.814Z,1016.39
2018-05-11T08:07:28.718Z,1016.32
2018-05-11T08:08:37.358Z,1016.29
2018-05-11T08:09:45.998Z,1016.35
2018-05-11T08:10:54.647Z,1016.32
2018-05-11T08:12:03.297Z,1016.34
2018-05-11T08:13:11.941Z,1016.31
2018-05-11T08:14:20.962Z,1016.33
2018-05-11T08:15:29.891Z,1016.31
2018-05-11T08:16:38.533Z,1016.31
2018-05-11T08:17:47.444Z,1016.27
2018-05-11T08:18:56.084Z,1016.29
2018-05-11T08:20:04.732Z,1016.25
2018-05-11T08:21:13.420Z,1016.28
2018-05-11T08:22:22.022Z,1016.26
2018-05-11T08:23:30.679Z,1016.25
2018-05-11T08:24:39.587Z,1016.26
2018-05-11T08:25:48.235Z,1016.29
2018-05-11T08:26:56.975Z,1016.28
2018-05-11T08:28:05.526Z,1016.27
2018-05-11T08:29:14.179Z,1016.26
2018-05-11T08:30:23.120Z,1016.27
2018-05-11T08:31:31.764Z,1016.27
2018-05-11T08:32:40.404Z,1016.29
2018-05-11T08:33:49.059Z,1016.21
2018-05-11T08:34:57.698Z,1016.24
2018-05-11T08:36:06.348Z,1016.21
2018-05-11T08:37:14.988Z,1016.14
2018-05-11T08:38:23.637Z,1016.18
2018-05-11T08:39:32.285Z,1016.17
2018-05-11T08:40:41.199Z,1016.16
2018-05-11T08:41:49.847Z,1016.1
2018-05-11T08:42:58.485Z,1016.14
2018-05-11T08:44:07.396Z,1016.14
2018-05-11T08:45:16.055Z,1016.14
2018-05-11T08:46:24.800Z,1016.12
2018-05-11T08:47:33.345Z,1016.09
2018-05-11T08:48:41.992Z,1016.14
2018-05-11T08:49:50.637Z,1016.09
2018-05-11T08:50:59.296Z,1016.07
2018-05-11T08:52:07.933Z,1016.05
2018-05-11T08:53:16.579Z,1016.03
2018-05-11T08:54:25.224Z,1016.04
2018-05-11T08:55:33.873Z,1016.04
2018-05-11T08:56:42.517Z,1015.98
2018-05-11T08:57:51.164Z,1015.99
2018-05-11T08:58:59.806Z,1015.98
2018-05-11T09:00:08.451Z,1015.96
2018-05-11T09:01:17.102Z,1015.98
2018-05-11T09:02:25.753Z,1015.92
2018-05-11T09:03:34.422Z,1015.9
2018-05-11T09:04:43.033Z,1015.88
2018-05-11T09:05:51.685Z,1015.84
2018-05-11T09:07:00.327Z,1015.84
2018-05-11T09:08:08.974Z,1015.86
2018-05-11T09:09:17.616Z,1015.89
2018-05-11T09:10:26.266Z,1015.91
2018-05-11T09:11:34.910Z,1015.87
2018-05-11T09:12:43.558Z,1015.86
2018-05-11T09:13:52.459Z,1015.94
2018-05-11T09:15:01.121Z,1015.92
2018-05-11T09:16:09.753Z,1015.9
2018-05-11T09:17:18.940Z,1015.87
2018-05-11T09:18:27.589Z,1015.84
2018-05-11T09:19:36.231Z,1015.83
2018-05-11T09:20:44.876Z,1015.84
2018-05-11T09:21:53.523Z,1015.85
2018-05-11T09:23:02.183Z,1015.84
2018-05-11T09:24:11.089Z,1015.82
2018-05-11T09:25:19.742Z,1015.82
2018-05-11T09:26:28.648Z,1015.85
2018-05-11T09:27:37.304Z,1015.83
2018-05-11T09:28:45.949Z,1015.82
2018-05-11T09:29:54.601Z,1015.79
2018-05-11T09:31:03.243Z,1015.81
2018-05-11T09:32:11.897Z,1015.8
2018-05-11T09:33:20.542Z,1015.77
2018-05-11T09:34:29.183Z,1015.76
2018-05-11T09:35:37.829Z,1015.83
2018-05-11T09:36:46.474Z,1015.75
2018-05-11T09:37:55.131Z,1015.72
2018-05-11T09:39:03.773Z,1015.83
2018-05-11T09:40:12.424Z,1015.85
2018-05-11T09:41:21.067Z,1015.86
2018-05-11T09:42:29.718Z,1015.81
2018-05-11T09:43:38.361Z,1015.8
2018-05-11T09:44:47.010Z,1015.79
2018-05-11T09:45:55.649Z,1015.78
2018-05-11T09:47:04.304Z,1015.79
2018-05-11T09:48:12.948Z,1015.77
2018-05-11T09:49:21.959Z,1015.71
2018-05-11T09:50:30.874Z,1015.75
2018-05-11T09:51:39.522Z,1015.75
2018-05-11T09:52:48.174Z,1015.77
2018-05-11T09:53:57.096Z,1015.76
2018-05-11T09:55:05.858Z,1015.73
2018-05-11T09:56:14.777Z,1015.75
2018-05-11T09:57:23.429Z,1015.75
2018-05-11T09:58:32.074Z,1015.79
2018-05-11T09:59:40.727Z,1015.79
2018-05-11T10:00:49.408Z,1015.79
2018-05-11T10:01:58.019Z,1015.77
2018-05-11T10:03:06.662Z,1015.73
2018-05-11T10:04:15.322Z,1015.71
2018-05-11T10:05:23.957Z,1015.74
2018-05-11T10:06:32.607Z,1015.79
2018-05-11T10:07:41.252Z,1015.75
2018-05-11T10:08:49.909Z,1015.73
2018-05-11T10:09:58.553Z,1015.7
2018-05-11T10:11:07.198Z,1015.73
2018-05-11T10:12:16.107Z,1015.67
2018-05-11T10:13:24.753Z,1015.69
2018-05-11T10:14:33.418Z,1015.69
2018-05-11T10:15:42.321Z,1015.67
2018-05-11T10:16:50.972Z,1015.66
2018-05-11T10:17:59.609Z,1015.68
2018-05-11T10:19:08.265Z,1015.65
2018-05-11T10:20:16.920Z,1015.67
2018-05-11T10:21:25.833Z,1015.61
2018-05-11T10:22:34.473Z,1015.62
2018-05-11T10:23:43.393Z,1015.59
2018-05-11T10:24:52.038Z,1015.61
2018-05-11T10:26:00.687Z,1015.6
2018-05-11T10:27:09.330Z,1015.59
2018-05-11T10:28:18.245Z,1015.62
2018-05-11T10:29:26.893Z,1015.64
2018-05-11T10:30:35.543Z,1015.66
2018-05-11T10:31:44.194Z,1015.63
2018-05-11T10:32:52.836Z,1015.58
2018-05-11T10:34:01.748Z,1015.61
2018-05-11T10:35:10.391Z,1015.66
2018-05-11T10:36:19.043Z,1015.67
2018-05-11T10:37:27.685Z,1015.67
2018-05-11T10:38:36.332Z,1015.67
2018-05-11T10:39:44.993Z,1015.64
2018-05-11T10:40:54.186Z,1015.63
2018-05-11T10:42:02.830Z,1015.6
2018-05-11T10:43:11.484Z,1015.57
2018-05-11T10:44:20.392Z,1015.58
2018-05-11T10:45:29.305Z,1015.57
2018-05-11T10:46:37.957Z,1015.52
2018-05-11T10:47:47.138Z,1015.54
2018-05-11T10:48:55.890Z,1015.53
2018-05-11T10:50:04.441Z,1015.51
2018-05-11T10:51:13.087Z,1015.53
2018-05-11T10:52:21.736Z,1015.48
2018-05-11T10:53:30.385Z,1015.5
2018-05-11T10:54:39.042Z,1015.5
2018-05-11T10:55:47.740Z,1015.47
2018-05-11T10:56:56.595Z,1015.47
2018-05-11T10:58:05.513Z,1015.54
2018-05-11T10:59:14.417Z,1015.5
2018-05-11T11:00:23.072Z,1015.46
2018-05-11T11:01:31.717Z,1015.42
2018-05-11T11:02:40.377Z,1015.4
2018-05-11T11:03:49.283Z,1015.37
2018-05-11T11:04:57.931Z,1015.4
2018-05-11T11:06:06.578Z,1015.43
2018-05-11T11:07:15.496Z,1015.43
2018-05-11T11:08:24.152Z,1015.42
2018-05-11T11:09:32.790Z,1015.42
2018-05-11T11:10:41.438Z,1015.44
2018-05-11T11:11:50.086Z,1015.43
2018-05-11T11:12:58.737Z,1015.41
2018-05-11T11:14:07.380Z,1015.45
2018-05-11T11:15:16.028Z,1015.43
2018-05-11T11:16:24.674Z,1015.41
2018-05-11T11:17:33.327Z,1015.39
2018-05-11T11:18:41.993Z,1015.39
2018-05-11T11:19:50.631Z,1015.33
2018-05-11T11:20:59.294Z,1015.29
2018-05-11T11:22:07.925Z,1015.29
2018-05-11T11:23:16.570Z,1015.3
2018-05-11T11:24:25.224Z,1015.27
2018-05-11T11:25:33.858Z,1015.3
2018-05-11T11:26:42.504Z,1015.25
2018-05-11T11:27:51.161Z,1015.23
2018-05-11T11:28:59.804Z,1015.24
2018-05-11T11:30:08.460Z,1015.21
2018-05-11T11:31:17.362Z,1015.19
2018-05-11T11:32:26.027Z,1015.22
2018-05-11T11:33:34.930Z,1015.2
2018-05-11T11:34:43.866Z,1015.22
2018-05-11T11:35:52.487Z,1015.19
2018-05-11T11:37:01.408Z,1015.15
2018-05-11T11:38:10.056Z,1015.18
2018-05-11T11:39:18.970Z,1015.09
2018-05-11T11:40:27.609Z,1015.09
2018-05-11T11:41:36.549Z,1015.1
2018-05-11T11:42:45.463Z,1015.06
2018-05-11T11:43:54.113Z,1015.09
2018-05-11T11:45:02.764Z,1015.08
2018-05-11T11:46:11.405Z,1015.04
2018-05-11T11:47:20.057Z,1015.02
2018-05-11T11:48:28.699Z,1014.97
2018-05-11T11:49:37.358Z,1014.95
2018-05-11T11:50:45.994Z,1014.91
2018-05-11T11:51:54.646Z,1014.94
2018-05-11T11:53:03.291Z,1014.87
2018-05-11T11:54:11.946Z,1014.9
2018-05-11T11:55:20.586Z,1014.8
2018-05-11T11:56:29.306Z,1014.84
2018-05-11T11:57:37.886Z,1014.87
2018-05-11T11:58:46.546Z,1014.84
2018-05-11T11:59:55.194Z,1014.8
2018-05-11T12:01:03.833Z,1014.77
2018-05-11T12:02:12.482Z,1014.76
2018-05-11T12:03:21.126Z,1014.79
2018-05-11T12:04:29.782Z,1014.76
2018-05-11T12:05:38.427Z,1014.71
2018-05-11T12:06:47.078Z,1014.72
2018-05-11T12:07:55.721Z,1014.71
2018-05-11T12:09:04.526Z,1014.74
2018-05-11T12:10:13.020Z,1014.71
2018-05-11T12:11:21.671Z,1014.65
2018-05-11T12:12:30.307Z,1014.63
2018-05-11T12:13:39.020Z,1014.65
2018-05-11T12:14:47.938Z,1014.57
2018-05-11T12:15:56.590Z,1014.58
2018-05-11T12:17:05.232Z,1014.59
2018-05-11T12:18:13.884Z,1014.6
2018-05-11T12:19:22.541Z,1014.57
2018-05-11T12:20:31.179Z,1014.6
2018-05-11T12:21:40.091Z,1014.59
2018-05-11T12:22:48.749Z,1014.57
2018-05-11T12:23:57.931Z,1014.53
2018-05-11T12:25:06.583Z,1014.57
2018-05-11T12:26:15.491Z,1014.59
2018-05-11T12:27:24.143Z,1014.6
2018-05-11T12:28:32.788Z,1014.57
2018-05-11T12:29:41.441Z,1014.56
2018-05-11T12:30:50.080Z,1014.56
2018-05-11T12:31:58.737Z,1014.55
2018-05-11T12:33:07.385Z,1014.54
2018-05-11T12:34:16.034Z,1014.54
2018-05-11T12:35:24.672Z,1014.56
2018-05-11T12:36:33.324Z,1014.55
2018-05-11T12:37:41.979Z,1014.6
2018-05-11T12:38:50.896Z,1014.56
2018-05-11T12:39:59.547Z,1014.48
2018-05-11T12:41:08.303Z,1014.45
2018-05-11T12:42:16.843Z,1014.46
2018-05-11T12:43:25.486Z,1014.43
2018-05-11T12:44:34.146Z,1014.46
2018-05-11T12:45:42.786Z,1014.41
2018-05-11T12:46:51.440Z,1014.4
2018-05-11T12:48:00.083Z,1014.47
2018-05-11T12:49:08.740Z,1014.47
2018-05-11T12:50:17.653Z,1014.48
2018-05-11T12:51:26.299Z,1014.4
2018-05-11T12:52:34.943Z,1014.39
2018-05-11T12:53:43.896Z,1014.35
2018-05-11T12:54:52.545Z,1014.35
2018-05-11T12:56:01.194Z,1014.34
2018-05-11T12:57:09.839Z,1014.29
2018-05-11T12:58:18.744Z,1014.25
2018-05-11T12:59:27.402Z,1014.26
2018-05-11T13:00:36.045Z,1014.28
2018-05-11T13:01:44.699Z,1014.21
2018-05-11T13:02:53.344Z,1014.28
2018-05-11T13:04:02.094Z,1014.25
2018-05-11T13:05:10.644Z,1014.21
2018-05-11T13:06:19.825Z,1014.19
2018-05-11T13:07:28.466Z,1014.16
2018-05-11T13:08:37.122Z,1014.14
2018-05-11T13:09:45.770Z,1014.15
2018-05-11T13:10:54.419Z,1014.16
2018-05-11T13:12:03.064Z,1014.09
2018-05-11T13:13:11.975Z,1014.11
2018-05-11T13:14:20.629Z,1014.11
2018-05-11T13:15:29.290Z,1014.1
2018-05-11T13:16:38.206Z,1014.13
2018-05-11T13:17:46.848Z,1014.12
2018-05-11T13:18:55.500Z,1014.11
2018-05-11T13:20:04.150Z,1014.1
2018-05-11T13:21:12.804Z,1014.1
2018-05-11T13:22:21.453Z,1014.08
2018-05-11T13:23:30.153Z,1014.06
2018-05-11T13:24:39.015Z,1014.05
2018-05-11T13:25:47.672Z,1014.06
2018-05-11T13:26:56.314Z,1014.07
2018-05-11T13:28:04.965Z,1014.01
2018-05-11T13:29:13.616Z,1014.04
2018-05-11T13:30:22.836Z,1014.03
2018-05-11T13:31:31.743Z,1013.98
2018-05-11T13:32:40.393Z,1013.97
2018-05-11T13:33:49.040Z,1013.95
2018-05-11T13:34:57.687Z,1013.93
2018-05-11T13:36:06.349Z,1013.92
2018-05-11T13:37:15.523Z,1013.88
2018-05-11T13:38:24.171Z,1013.91
2018-05-11T13:39:32.818Z,1013.9
2018-05-11T13:40:41.771Z,1013.9
2018-05-11T13:41:50.419Z,1013.86
2018-05-11T13:42:59.071Z,1013.87
2018-05-11T13:44:07.715Z,1013.82
2018-05-11T13:45:16.370Z,1013.79
2018-05-11T13:46:25.018Z,1013.79
2018-05-11T13:47:33.667Z,1013.78
2018-05-11T13:48:42.585Z,1013.79
2018-05-11T13:49:51.237Z,1013.78
2018-05-11T13:50:59.888Z,1013.77
2018-05-11T13:52:08.540Z,1013.75
2018-05-11T13:53:17.193Z,1013.77
2018-05-11T13:54:25.838Z,1013.7